createdAt,value
2019-05-01T00:02:38.250Z,6.70
2019-05-01T00:05:23.418Z,6.70
2019-05-01T00:07:50.383Z,6.60
2019-05-01T00:10:19.360Z,6.60
2019-05-01T00:12:45.479Z,6.60
2019-05-01T00:15:12.557Z,6.50
2019-05-01T00:17:38.968Z,6.40
2019-05-01T00:20:05.341Z,6.30
2019-05-01T00:22:31.473Z,6.20
2019-05-01T00:24:57.697Z,6.10
2019-05-01T00:27:24.009Z,6.00
2019-05-01T00:29:50.244Z,5.90
2019-05-01T00:32:16.361Z,5.90
2019-05-01T00:34:42.563Z,5.90
2019-05-01T00:37:08.805Z,5.80
2019-05-01T00:39:34.953Z,5.80
2019-05-01T00:42:01.054Z,5.90
2019-05-01T00:44:27.184Z,5.80
2019-05-01T00:46:53.374Z,5.80
2019-05-01T00:49:19.458Z,5.80
2019-05-01T00:51:45.627Z,5.90
2019-05-01T00:54:12.151Z,5.90
2019-05-01T00:56:40.191Z,5.80
2019-05-01T00:59:24.948Z,5.70
2019-05-01T01:01:53.054Z,5.80
2019-05-01T01:04:19.805Z,5.90
2019-05-01T01:06:46.013Z,6.10
2019-05-01T01:09:12.481Z,6.20
2019-05-01T01:11:38.736Z,6.10
2019-05-01T01:14:05.267Z,6.10
2019-05-01T01:16:31.446Z,5.90
2019-05-01T01:18:57.582Z,5.90
2019-05-01T01:21:23.868Z,5.90
2019-05-01T01:23:50.199Z,5.90
2019-05-01T01:26:16.694Z,5.80
2019-05-01T01:28:42.891Z,5.70
2019-05-01T01:31:08.997Z,5.60
2019-05-01T01:33:35.157Z,5.60
2019-05-01T01:36:01.365Z,5.60
2019-05-01T01:38:27.713Z,5.70
2019-05-01T01:40:54.149Z,5.50
2019-05-01T01:43:39.235Z,5.50
2019-05-01T01:46:24.302Z,5.40
2019-05-01T01:48:50.733Z,5.30
2019-05-01T01:51:17.399Z,5.20
2019-05-01T01:53:43.545Z,5.20
2019-05-01T01:56:09.722Z,5.10
2019-05-01T01:58:36.538Z,5.10
2019-05-01T02:01:11.046Z,4.90
2019-05-01T02:03:39.364Z,4.90
2019-05-01T02:06:05.799Z,4.90
2019-05-01T02:08:32.135Z,4.80
2019-05-01T02:10:58.501Z,4.80
2019-05-01T02:13:24.889Z,4.90
2019-05-01T02:15:51.149Z,4.90
2019-05-01T02:18:17.375Z,4.80
2019-05-01T02:20:43.616Z,4.80
2019-05-01T02:23:09.831Z,4.70
2019-05-01T02:25:38.081Z,4.70
2019-05-01T02:28:22.931Z,4.70
2019-05-01T02:31:26.695Z,4.70
2019-05-01T02:33:39.719Z,4.70
2019-05-01T02:36:06.525Z,4.50
2019-05-01T02:38:35.700Z,4.50
2019-05-01T02:41:02.854Z,4.50
2019-05-01T02:43:32.912Z,4.40
2019-05-01T02:46:02.980Z,4.40
2019-05-01T02:48:32.945Z,4.40
2019-05-01T02:51:00.882Z,4.40
2019-05-01T02:53:29.651Z,4.40
2019-05-01T02:56:14.200Z,4.30
2019-05-01T02:58:43.560Z,4.30
2019-05-01T03:01:09.895Z,4.30
2019-05-01T03:03:36.122Z,4.20
2019-05-01T03:06:02.548Z,4.20
2019-05-01T03:08:29.139Z,4.10
2019-05-01T03:10:55.324Z,4.30
2019-05-01T03:13:21.769Z,4.40
2019-05-01T03:15:48.550Z,4.30
2019-05-01T03:18:28.606Z,4.40
2019-05-01T03:21:02.877Z,4.60
2019-05-01T03:23:43.170Z,4.60
2019-05-01T03:26:09.581Z,4.70
2019-05-01T03:28:36.006Z,4.50
2019-05-01T03:31:02.504Z,4.60
2019-05-01T03:33:29.075Z,4.50
2019-05-01T03:35:55.753Z,4.50
2019-05-01T03:38:22.656Z,4.40
2019-05-01T03:40:49.478Z,4.40
2019-05-01T03:43:15.987Z,4.30
2019-05-01T03:45:42.518Z,4.40
2019-05-01T03:48:09.255Z,4.50
2019-05-01T03:50:35.421Z,4.40
2019-05-01T03:53:01.657Z,4.20
2019-05-01T03:55:27.950Z,4.20
2019-05-01T03:57:54.505Z,4.20
2019-05-01T04:00:28.363Z,4.20
2019-05-01T04:03:13.311Z,4.20
2019-05-01T04:05:39.701Z,4.30
2019-05-01T04:08:05.800Z,4.20
2019-05-01T04:10:33.474Z,4.10
2019-05-01T04:13:02.473Z,4.10
2019-05-01T04:15:29.655Z,4.30
2019-05-01T04:17:58.370Z,4.40
2019-05-01T04:20:27.946Z,4.50
2019-05-01T04:22:54.577Z,4.50
2019-05-01T04:25:21.536Z,4.50
2019-05-01T04:27:50.245Z,4.50
2019-05-01T04:30:35.888Z,4.40
2019-05-01T04:33:11.027Z,4.40
2019-05-01T04:35:53.700Z,4.40
2019-05-01T04:38:21.650Z,4.40
2019-05-01T04:40:49.475Z,4.40
2019-05-01T04:43:18.357Z,4.30
2019-05-01T04:45:49.935Z,4.30
2019-05-01T04:48:25.835Z,4.20
2019-05-01T04:50:53.324Z,4.20
2019-05-01T04:53:21.875Z,4.20
2019-05-01T04:55:48.992Z,4.20
2019-05-01T04:58:15.861Z,4.20
2019-05-01T05:00:45.598Z,4.20
2019-05-01T05:03:19.132Z,4.20
2019-05-01T05:05:54.605Z,4.30
2019-05-01T05:08:27.218Z,4.30
2019-05-01T05:10:55.769Z,4.50
2019-05-01T05:13:24.400Z,4.70
2019-05-01T05:15:59.252Z,4.90
2019-05-01T05:18:25.974Z,5.00
2019-05-01T05:20:53.194Z,5.00
2019-05-01T05:23:19.985Z,5.00
2019-05-01T05:25:47.110Z,5.00
2019-05-01T05:28:13.825Z,5.10
2019-05-01T05:30:42.549Z,5.20
2019-05-01T05:33:18.005Z,5.20
2019-05-01T05:35:40.271Z,5.40
2019-05-01T05:38:09.793Z,5.70
2019-05-01T05:40:37.098Z,6.00
2019-05-01T05:43:03.966Z,6.20
2019-05-01T05:45:30.682Z,6.40
2019-05-01T05:47:57.908Z,6.50
2019-05-01T05:50:29.750Z,6.40
2019-05-01T05:53:00.806Z,6.50
2019-05-01T05:55:31.113Z,6.50
2019-05-01T05:58:01.957Z,6.50
2019-05-01T06:00:33.542Z,6.50
2019-05-01T06:03:30.980Z,6.60
2019-05-01T06:06:02.482Z,6.60
2019-05-01T06:08:32.528Z,6.70
2019-05-01T06:11:09.499Z,6.80
2019-05-01T06:13:59.391Z,6.90
2019-05-01T06:16:52.170Z,6.90
2019-05-01T06:19:26.947Z,7.20
2019-05-01T06:22:13.792Z,7.40
2019-05-01T06:24:45.930Z,7.30
2019-05-01T06:27:13.850Z,7.60
2019-05-01T06:29:41.971Z,7.80
2019-05-01T06:32:08.657Z,7.90
2019-05-01T06:34:35.827Z,8.00
2019-05-01T06:37:02.562Z,8.10
2019-05-01T06:39:29.206Z,8.30
2019-05-01T06:41:56.529Z,8.30
2019-05-01T06:44:25.781Z,8.50
2019-05-01T06:46:58.276Z,8.60
2019-05-01T06:49:29.335Z,8.40
2019-05-01T06:52:04.987Z,8.50
2019-05-01T06:54:34.845Z,8.50
2019-05-01T06:57:10.638Z,8.50
2019-05-01T06:59:46.112Z,8.40
2019-05-01T07:02:16.038Z,8.70
2019-05-01T07:04:44.319Z,8.80
2019-05-01T07:07:24.687Z,9.40
2019-05-01T07:09:44.279Z,9.70
2019-05-01T07:12:13.332Z,10.10
2019-05-01T07:14:40.364Z,10.30
2019-05-01T07:17:09.018Z,10.40
2019-05-01T07:19:42.008Z,10.50
2019-05-01T07:22:08.595Z,10.70
2019-05-01T07:24:36.210Z,10.80
2019-05-01T07:27:02.817Z,11.00
2019-05-01T07:29:32.905Z,11.10
2019-05-01T07:32:01.610Z,11.10
2019-05-01T07:34:28.487Z,11.40
2019-05-01T07:36:55.197Z,11.40
2019-05-01T07:39:21.965Z,11.60
2019-05-01T07:41:48.648Z,11.80
2019-05-01T07:44:17.663Z,12.00
2019-05-01T07:46:53.473Z,12.20
2019-05-01T07:49:21.080Z,12.20
2019-05-01T07:51:51.476Z,12.20
2019-05-01T07:54:19.225Z,12.40
2019-05-01T07:56:45.921Z,12.50
2019-05-01T07:59:12.229Z,12.60
2019-05-01T08:01:49.799Z,12.30
2019-05-01T08:04:18.394Z,12.30
2019-05-01T08:06:42.099Z,12.40
2019-05-01T08:09:11.377Z,12.50
2019-05-01T08:11:39.052Z,12.60
2019-05-01T08:14:07.535Z,12.60
2019-05-01T08:16:32.679Z,12.50
2019-05-01T08:19:04.045Z,12.20
2019-05-01T08:21:30.643Z,12.20
2019-05-01T08:23:56.773Z,12.30
2019-05-01T08:26:23.043Z,12.30
2019-05-01T08:28:51.304Z,12.50
2019-05-01T08:31:22.967Z,12.60
2019-05-01T08:34:07.445Z,12.60
2019-05-01T08:36:33.678Z,12.70
2019-05-01T08:38:59.815Z,12.80
2019-05-01T08:41:27.023Z,13.10
2019-05-01T08:43:55.880Z,13.10
2019-05-01T08:46:30.167Z,13.10
2019-05-01T08:48:58.405Z,13.00
2019-05-01T08:51:24.545Z,12.70
2019-05-01T08:53:52.704Z,12.80
2019-05-01T08:56:21.858Z,13.40
2019-05-01T08:58:49.438Z,13.80
2019-05-01T09:01:16.409Z,13.70
2019-05-01T09:03:42.847Z,13.80
2019-05-01T09:06:08.931Z,13.80
2019-05-01T09:08:35.062Z,13.70
2019-05-01T09:11:02.288Z,13.80
2019-05-01T09:13:28.778Z,14.00
2019-05-01T09:15:54.861Z,14.20
2019-05-01T09:18:20.982Z,14.30
2019-05-01T09:20:49.127Z,14.30
2019-05-01T09:23:16.184Z,14.30
2019-05-01T09:26:01.102Z,14.40
2019-05-01T09:28:44.208Z,14.40
2019-05-01T09:31:12.438Z,14.60
2019-05-01T09:33:38.802Z,14.60
2019-05-01T09:36:05.276Z,14.70
2019-05-01T09:38:31.415Z,14.50
2019-05-01T09:40:57.659Z,14.50
2019-05-01T09:43:23.892Z,14.40
2019-05-01T09:45:50.297Z,14.40
2019-05-01T09:48:16.486Z,14.50
2019-05-01T09:51:05.399Z,14.50
2019-05-01T09:53:37.249Z,14.60
2019-05-01T09:56:11.526Z,14.50
2019-05-01T09:58:37.651Z,14.40
2019-05-01T10:01:04.043Z,14.50
2019-05-01T10:03:30.276Z,14.60
2019-05-01T10:05:56.464Z,14.70
2019-05-01T10:08:22.538Z,14.70
2019-05-01T10:10:48.648Z,14.70
2019-05-01T10:13:17.653Z,14.80
2019-05-01T10:15:42.869Z,14.90
2019-05-01T10:18:10.848Z,14.60
2019-05-01T10:20:37.082Z,14.80
2019-05-01T10:23:03.381Z,14.90
2019-05-01T10:25:29.547Z,14.70
2019-05-01T10:28:00.378Z,14.70
2019-05-01T10:30:31.619Z,14.70
2019-05-01T10:32:59.689Z,14.60
2019-05-01T10:35:41.864Z,14.80
2019-05-01T10:37:58.986Z,14.70
2019-05-01T10:40:26.931Z,14.90
2019-05-01T10:42:53.248Z,14.80
2019-05-01T10:45:19.518Z,14.70
2019-05-01T10:47:45.626Z,14.80
2019-05-01T10:50:11.750Z,14.90
2019-05-01T10:52:37.944Z,14.90
2019-05-01T10:55:07.305Z,14.80
2019-05-01T10:57:35.261Z,14.50
2019-05-01T11:00:04.480Z,14.50
2019-05-01T11:02:30.608Z,14.50
2019-05-01T11:04:56.684Z,14.70
2019-05-01T11:07:22.990Z,14.60
2019-05-01T11:09:51.482Z,14.50
2019-05-01T11:12:17.714Z,14.60
2019-05-01T11:14:43.793Z,14.70
2019-05-01T11:17:09.984Z,14.80
2019-05-01T11:19:36.113Z,14.80
2019-05-01T11:22:02.241Z,14.80
2019-05-01T11:24:29.501Z,14.80
2019-05-01T11:26:55.730Z,14.80
2019-05-01T11:29:22.068Z,14.80
2019-05-01T11:31:56.309Z,14.90
2019-05-01T11:34:39.495Z,15.00
2019-05-01T11:37:07.700Z,15.10
2019-05-01T11:39:48.044Z,14.90
2019-05-01T11:42:14.840Z,14.90
2019-05-01T11:44:41.062Z,14.90
2019-05-01T11:47:07.434Z,14.90
2019-05-01T11:49:33.703Z,15.00
2019-05-01T11:51:59.866Z,15.20
2019-05-01T11:54:25.946Z,15.10
2019-05-01T11:56:52.038Z,15.20
2019-05-01T11:59:18.144Z,15.30
2019-05-01T12:01:44.370Z,15.40
2019-05-01T12:04:10.500Z,15.40
2019-05-01T12:06:36.584Z,15.50
2019-05-01T12:09:05.433Z,15.60
2019-05-01T12:11:33.657Z,15.60
2019-05-01T12:13:59.897Z,15.60
2019-05-01T12:16:45.003Z,15.70
2019-05-01T12:19:11.314Z,15.80
2019-05-01T12:21:37.448Z,15.90
2019-05-01T12:24:03.814Z,15.90
2019-05-01T12:26:30.002Z,16.10
2019-05-01T12:28:56.164Z,16.10
2019-05-01T12:31:22.284Z,16.20
2019-05-01T12:33:48.422Z,16.20
2019-05-01T12:36:14.751Z,16.30
2019-05-01T12:38:40.838Z,16.40
2019-05-01T12:41:20.981Z,16.40
2019-05-01T12:43:47.055Z,16.20
2019-05-01T12:46:15.271Z,16.40
2019-05-01T12:48:41.781Z,16.50
2019-05-01T12:51:08.478Z,16.40
2019-05-01T12:53:42.771Z,16.20
2019-05-01T12:56:10.876Z,16.40
2019-05-01T12:58:37.436Z,16.80
2019-05-01T13:01:03.839Z,17.00
2019-05-01T13:03:29.977Z,17.00
2019-05-01T13:05:56.156Z,16.80
2019-05-01T13:08:22.235Z,16.80
2019-05-01T13:10:48.557Z,17.00
2019-05-01T13:13:14.803Z,17.10
2019-05-01T13:15:41.119Z,17.10
2019-05-01T13:18:07.322Z,17.10
2019-05-01T13:20:33.525Z,17.10
2019-05-01T13:22:59.682Z,17.30
2019-05-01T13:25:25.779Z,17.70
2019-05-01T13:27:56.809Z,17.80
2019-05-01T13:30:33.994Z,18.30
2019-05-01T13:33:00.367Z,18.00
2019-05-01T13:35:26.676Z,18.30
2019-05-01T13:37:52.839Z,18.20
2019-05-01T13:40:19.861Z,18.00
2019-05-01T13:42:46.071Z,18.40
2019-05-01T13:45:12.775Z,18.70
2019-05-01T13:47:38.973Z,18.80
2019-05-01T13:50:06.177Z,18.20
2019-05-01T13:52:32.288Z,17.90
2019-05-01T13:54:58.441Z,18.30
2019-05-01T13:57:24.522Z,18.40
2019-05-01T13:59:50.773Z,18.20
2019-05-01T14:02:16.973Z,18.10
2019-05-01T14:04:43.279Z,18.20
2019-05-01T14:07:16.192Z,18.70
2019-05-01T14:09:37.582Z,19.20
2019-05-01T14:12:03.811Z,19.80
2019-05-01T14:14:30.039Z,20.00
2019-05-01T14:16:56.234Z,20.20
2019-05-01T14:19:22.349Z,20.60
2019-05-01T14:21:56.221Z,20.60
2019-05-01T14:24:39.382Z,20.70
2019-05-01T14:27:07.684Z,20.60
2019-05-01T14:29:33.527Z,20.80
2019-05-01T14:31:59.867Z,20.80
2019-05-01T14:34:25.946Z,20.20
2019-05-01T14:36:52.097Z,19.70
2019-05-01T14:39:18.333Z,19.90
2019-05-01T14:41:44.495Z,19.70
2019-05-01T14:44:11.199Z,20.00
2019-05-01T14:46:37.321Z,20.20
2019-05-01T14:49:03.685Z,20.20
2019-05-01T14:51:29.854Z,20.50
2019-05-01T14:53:55.956Z,19.90
2019-05-01T14:56:22.140Z,19.70
2019-05-01T14:58:48.280Z,19.90
2019-05-01T15:01:14.367Z,19.90
2019-05-01T15:03:40.601Z,20.00
2019-05-01T15:06:06.844Z,20.00
2019-05-01T15:08:33.006Z,19.90
2019-05-01T15:10:59.098Z,19.90
2019-05-01T15:13:33.143Z,19.80
2019-05-01T15:16:16.234Z,19.70
2019-05-01T15:18:53.184Z,19.50
2019-05-01T15:21:19.651Z,19.50
2019-05-01T15:23:53.433Z,19.20
2019-05-01T15:26:13.770Z,19.30
2019-05-01T15:28:39.893Z,19.30
2019-05-01T15:31:06.098Z,19.30
2019-05-01T15:33:32.214Z,19.20
2019-05-01T15:35:58.307Z,19.10
2019-05-01T15:38:24.902Z,19.00
2019-05-01T15:40:53.063Z,18.90
2019-05-01T15:43:24.618Z,19.00
2019-05-01T15:45:51.559Z,19.00
2019-05-01T15:48:18.496Z,19.00
2019-05-01T15:50:45.371Z,19.00
2019-05-01T15:53:12.278Z,19.00
2019-05-01T15:55:38.589Z,19.00
2019-05-01T15:58:05.457Z,18.90
2019-05-01T16:00:31.870Z,18.80
2019-05-01T16:02:58.550Z,18.80
2019-05-01T16:05:25.216Z,18.70
2019-05-01T16:07:52.039Z,18.60
2019-05-01T16:10:20.652Z,18.50
2019-05-01T16:12:56.192Z,18.50
2019-05-01T16:15:24.714Z,18.50
2019-05-01T16:17:51.364Z,18.50
2019-05-01T16:20:17.768Z,18.50
2019-05-01T16:22:44.613Z,18.40
2019-05-01T16:25:11.464Z,18.40
2019-05-01T16:27:38.332Z,18.50
2019-05-01T16:30:05.941Z,18.50
2019-05-01T16:32:32.681Z,18.50
2019-05-01T16:34:59.308Z,18.40
2019-05-01T16:37:26.286Z,18.40
2019-05-01T16:39:54.968Z,18.40
2019-05-01T16:42:22.142Z,18.50
2019-05-01T16:44:48.565Z,18.50
2019-05-01T16:47:15.160Z,18.40
2019-05-01T16:49:43.598Z,18.30
2019-05-01T16:52:10.970Z,18.10
2019-05-01T16:54:37.351Z,18.10
2019-05-01T16:57:08.932Z,18.20
2019-05-01T16:59:35.378Z,18.00
2019-05-01T17:02:19.353Z,17.90
2019-05-01T17:04:56.632Z,17.90
2019-05-01T17:07:28.101Z,17.80
2019-05-01T17:09:59.234Z,17.70
2019-05-01T17:12:28.112Z,17.80
2019-05-01T17:14:54.229Z,17.70
2019-05-01T17:17:22.352Z,17.70
2019-05-01T17:19:53.452Z,17.70
2019-05-01T17:22:20.261Z,17.70
2019-05-01T17:24:46.924Z,17.70
2019-05-01T17:27:13.561Z,17.60
2019-05-01T17:29:40.276Z,17.50
2019-05-01T17:32:08.077Z,17.40
2019-05-01T17:34:35.210Z,17.40
2019-05-01T17:37:01.992Z,17.30
2019-05-01T17:39:28.886Z,17.20
2019-05-01T17:41:57.593Z,17.10
2019-05-01T17:44:25.409Z,17.00
2019-05-01T17:46:53.198Z,16.80
2019-05-01T17:49:19.632Z,16.70
2019-05-01T17:51:47.524Z,16.60
2019-05-01T17:54:14.636Z,16.50
2019-05-01T17:56:41.397Z,16.40
2019-05-01T17:59:08.024Z,16.30
2019-05-01T18:01:52.978Z,16.20
2019-05-01T18:04:27.574Z,16.00
2019-05-01T18:06:53.864Z,15.90
2019-05-01T18:09:20.438Z,15.80
2019-05-01T18:11:52.018Z,15.70
2019-05-01T18:14:16.056Z,15.60
2019-05-01T18:16:42.775Z,15.50
2019-05-01T18:19:10.554Z,15.40
2019-05-01T18:21:37.080Z,15.30
2019-05-01T18:24:08.947Z,15.20
2019-05-01T18:26:44.998Z,15.20
2019-05-01T18:29:13.403Z,15.10
2019-05-01T18:31:40.183Z,15.00
2019-05-01T18:34:06.726Z,14.90
2019-05-01T18:36:41.168Z,14.80
2019-05-01T18:39:16.710Z,14.70
2019-05-01T18:41:43.819Z,14.70
2019-05-01T18:44:11.383Z,14.60
2019-05-01T18:46:38.259Z,14.70
2019-05-01T18:49:04.940Z,14.60
2019-05-01T18:51:31.599Z,14.50
2019-05-01T18:53:58.902Z,14.40
2019-05-01T18:56:25.709Z,14.30
2019-05-01T18:58:52.672Z,14.20
2019-05-01T19:01:19.523Z,14.20
2019-05-01T19:03:46.253Z,14.10
2019-05-01T19:06:13.180Z,14.20
2019-05-01T19:08:39.891Z,14.10
2019-05-01T19:11:12.823Z,13.90
2019-05-01T19:13:36.096Z,13.80
2019-05-01T19:16:07.424Z,13.60
2019-05-01T19:18:31.792Z,13.50
2019-05-01T19:20:59.809Z,13.50
2019-05-01T19:23:27.972Z,13.50
2019-05-01T19:25:56.440Z,13.40
2019-05-01T19:28:24.656Z,13.50
2019-05-01T19:30:51.438Z,13.40
2019-05-01T19:33:18.207Z,13.40
2019-05-01T19:35:44.948Z,13.30
2019-05-01T19:38:11.955Z,13.30
2019-05-01T19:40:38.851Z,13.20
2019-05-01T19:43:05.349Z,13.00
2019-05-01T19:45:32.086Z,13.10
2019-05-01T19:47:58.373Z,13.10
2019-05-01T19:50:25.109Z,12.90
2019-05-01T19:52:51.731Z,12.80
2019-05-01T19:55:18.765Z,12.80
2019-05-01T19:57:45.707Z,12.80
2019-05-01T20:00:14.577Z,12.60
2019-05-01T20:02:41.514Z,12.40
2019-05-01T20:05:10.965Z,12.50
2019-05-01T20:07:36.771Z,12.50
2019-05-01T20:10:08.705Z,12.40
2019-05-01T20:12:35.759Z,12.30
2019-05-01T20:15:04.814Z,12.40
2019-05-01T20:17:31.588Z,12.50
2019-05-01T20:19:57.961Z,12.40
2019-05-01T20:22:24.717Z,12.30
2019-05-01T20:24:51.299Z,12.30
2019-05-01T20:27:18.164Z,12.20
2019-05-01T20:29:45.125Z,12.20
2019-05-01T20:32:11.414Z,12.00
2019-05-01T20:34:38.414Z,11.90
2019-05-01T20:37:05.223Z,11.70
2019-05-01T20:39:32.269Z,11.80
2019-05-01T20:42:00.863Z,11.80
2019-05-01T20:44:27.892Z,11.60
2019-05-01T20:46:58.488Z,11.70
2019-05-01T20:49:22.967Z,11.70
2019-05-01T20:51:49.744Z,11.50
2019-05-01T20:54:16.152Z,11.40
2019-05-01T20:56:44.868Z,11.30
2019-05-01T20:59:11.605Z,11.30
2019-05-01T21:01:38.481Z,11.30
2019-05-01T21:04:15.953Z,11.30
2019-05-01T21:06:46.978Z,11.20
2019-05-01T21:09:15.938Z,11.20
2019-05-01T21:11:47.247Z,11.20
2019-05-01T21:14:22.275Z,11.10
2019-05-01T21:16:43.807Z,11.00
2019-05-01T21:19:10.082Z,10.90
2019-05-01T21:21:36.479Z,10.80
2019-05-01T21:24:03.651Z,10.80
2019-05-01T21:26:30.327Z,10.90
2019-05-01T21:28:57.294Z,10.80
2019-05-01T21:31:24.152Z,10.80
2019-05-01T21:33:50.848Z,10.80
2019-05-01T21:36:17.292Z,10.70
2019-05-01T21:38:43.732Z,10.70
2019-05-01T21:41:10.350Z,10.70
2019-05-01T21:43:38.960Z,10.50
2019-05-01T21:46:05.543Z,10.40
2019-05-01T21:48:33.484Z,10.50
2019-05-01T21:51:05.906Z,10.50
2019-05-01T21:53:32.651Z,10.60
2019-05-01T21:56:02.162Z,10.40
2019-05-01T21:58:29.876Z,10.30
2019-05-01T22:00:59.610Z,10.20
2019-05-01T22:03:24.804Z,10.30
2019-05-01T22:05:51.836Z,10.30
2019-05-01T22:08:18.656Z,10.30
2019-05-01T22:10:51.712Z,10.40
2019-05-01T22:13:14.386Z,10.40
2019-05-01T22:15:47.290Z,10.20
2019-05-01T22:18:16.012Z,10.20
2019-05-01T22:20:56.876Z,10.20
2019-05-01T22:23:28.008Z,10.10
2019-05-01T22:25:56.547Z,10.00
2019-05-01T22:28:24.898Z,10.10
2019-05-01T22:30:53.056Z,10.20
2019-05-01T22:33:19.280Z,10.20
2019-05-01T22:35:47.383Z,10.10
2019-05-01T22:38:13.655Z,10.10
2019-05-01T22:40:50.754Z,10.00
2019-05-01T22:43:17.148Z,9.90
2019-05-01T22:45:43.410Z,9.90
2019-05-01T22:48:09.622Z,9.80
2019-05-01T22:50:35.698Z,9.70
2019-05-01T22:53:01.910Z,9.70
2019-05-01T22:55:28.026Z,9.70
2019-05-01T22:57:54.120Z,9.50
2019-05-01T23:00:29.955Z,9.50
2019-05-01T23:03:00.097Z,9.50
2019-05-01T23:05:27.876Z,9.50
2019-05-01T23:07:56.911Z,9.50
2019-05-01T23:10:22.507Z,9.50
2019-05-01T23:12:48.732Z,9.50
2019-05-01T23:15:22.819Z,9.50
2019-05-01T23:17:49.114Z,9.40
2019-05-01T23:20:15.321Z,9.40
2019-05-01T23:22:41.447Z,9.50
2019-05-01T23:25:07.841Z,9.60
2019-05-01T23:27:34.077Z,9.60
2019-05-01T23:30:00.589Z,9.50
2019-05-01T23:32:26.701Z,9.50
2019-05-01T23:34:52.807Z,9.50
2019-05-01T23:37:18.891Z,9.50
2019-05-01T23:39:45.041Z,9.60
2019-05-01T23:42:11.380Z,9.50
2019-05-01T23:44:38.251Z,9.40
2019-05-01T23:47:05.574Z,9.40
2019-05-01T23:49:31.697Z,9.40
2019-05-01T23:51:58.587Z,9.50
2019-05-01T23:54:25.826Z,9.40
2019-05-01T23:56:51.945Z,9.30
2019-05-01T23:59:18.011Z,9.30
